Time;durP1;ratioP1;P1;durP2;ratioP2;P2;SDS_P1;SDS_P2;PMS_P1;PMS_P2;Temp;Humidity;BMP_temperature;BMP_pressure;BME280_temperature;BME280_humidity;BME280_pressure;Samples;Min_cycle;Max_cycle;Signal;HPM_P1;HPM_P2
2022/07/07 00:01:15;;;;;;;2.17;1.10;;;19.30;98.00;;;;;;5123091;27;20118;-75
2022/07/07 00:03:41;;;;;;;1.90;1.17;;;19.30;98.00;;;;;;5118295;27;20037;-75
2022/07/07 00:06:07;;;;;;;1.50;1.08;;;19.30;98.10;;;;;;5122298;27;20048;-76
2022/07/07 00:08:33;;;;;;;1.75;1.10;;;19.30;98.20;;;;;;5121934;27;20727;-76
2022/07/07 00:10:58;;;;;;;2.05;1.17;;;19.30;98.30;;;;;;5122838;27;20051;-76
2022/07/07 00:13:24;;;;;;;1.20;0.85;;;19.30;98.30;;;;;;5118349;27;20044;-75
2022/07/07 00:15:50;;;;;;;1.48;0.77;;;19.20;98.30;;;;;;5120932;27;20480;-75
2022/07/07 00:18:16;;;;;;;1.38;0.90;;;19.20;98.40;;;;;;5118494;27;20517;-75
2022/07/07 00:20:42;;;;;;;1.25;0.90;;;19.10;98.50;;;;;;5119704;27;20100;-75
2022/07/07 00:23:07;;;;;;;2.63;1.17;;;19.10;98.60;;;;;;5121886;27;20097;-75
2022/07/07 00:25:33;;;;;;;1.90;1.20;;;19.10;98.70;;;;;;5127363;27;20073;-75
2022/07/07 00:27:59;;;;;;;1.60;1.00;;;19.10;98.80;;;;;;5122356;27;20506;-75
2022/07/07 00:30:25;;;;;;;2.63;1.20;;;19.10;98.90;;;;;;5123492;27;20039;-75
2022/07/07 00:32:51;;;;;;;1.90;1.10;;;19.10;99.00;;;;;;5122495;27;20039;-75
2022/07/07 00:35:16;;;;;;;1.05;0.90;;;19.00;99.00;;;;;;5125494;27;20061;-75
2022/07/07 00:37:42;;;;;;;1.23;1.05;;;19.00;99.10;;;;;;5126616;27;20517;-75
2022/07/07 00:40:09;;;;;;;1.40;1.00;;;19.00;99.20;;;;;;5117769;27;20042;-76
2022/07/07 00:42:35;;;;;;;2.53;1.25;;;19.00;99.30;;;;;;5119057;27;20038;-76
2022/07/07 00:45:00;;;;;;;1.60;1.17;;;19.00;99.50;;;;;;5122327;27;21059;-75
2022/07/07 00:47:27;;;;;;;1.33;1.02;;;18.90;99.50;;;;;;5121488;27;20044;-75
2022/07/07 00:49:54;;;;;;;2.05;1.67;;;19.00;99.60;;;;;;5123841;27;20049;-75
2022/07/07 00:52:20;;;;;;;2.55;1.42;;;19.00;99.70;;;;;;5124807;27;20035;-75
2022/07/07 00:54:59;;;;;;;2.58;1.45;;;18.90;99.80;;;;;;5117505;27;20456;-76
2022/07/07 00:57:26;;;;;;;1.30;1.20;;;18.90;99.90;;;;;;5124262;27;20048;-75
2022/07/07 00:59:57;;;;;;;4.10;1.50;;;18.80;99.90;;;;;;5121312;27;20540;-75
2022/07/07 01:02:23;;;;;;;2.65;1.35;;;18.80;99.90;;;;;;5124470;27;20050;-76
2022/07/07 01:04:48;;;;;;;2.28;1.20;;;18.80;99.90;;;;;;5122250;27;20421;-75
2022/07/07 01:07:14;;;;;;;3.30;1.10;;;18.80;99.90;;;;;;5121621;27;20051;-75
2022/07/07 01:09:41;;;;;;;1.58;1.20;;;18.70;99.90;;;;;;5124268;27;20551;-75
2022/07/07 01:12:07;;;;;;;2.97;1.02;;;18.80;99.90;;;;;;5121576;27;20093;-75
2022/07/07 01:14:33;;;;;;;1.90;1.20;;;18.70;99.90;;;;;;5124059;27;20679;-75
2022/07/07 01:16:59;;;;;;;2.22;1.70;;;18.80;99.90;;;;;;5120125;27;20044;-75
2022/07/07 01:19:25;;;;;;;1.52;1.00;;;18.60;99.90;;;;;;5124215;27;20050;-75
2022/07/07 01:21:54;;;;;;;1.75;1.50;;;18.50;99.90;;;;;;5124776;27;20551;-75
2022/07/07 01:24:22;;;;;;;3.20;1.27;;;18.60;99.90;;;;;;5115840;27;20048;-75
2022/07/07 01:26:48;;;;;;;2.33;1.40;;;18.60;99.90;;;;;;5122257;27;20092;-75
2022/07/07 01:29:13;;;;;;;2.53;1.48;;;18.50;99.90;;;;;;5124276;27;20046;-75
2022/07/07 01:31:40;;;;;;;4.43;1.23;;;18.50;99.90;;;;;;5121351;27;20047;-75
2022/07/07 01:34:05;;;;;;;2.50;1.30;;;18.50;99.90;;;;;;5119467;27;20051;-75
2022/07/07 01:36:31;;;;;;;1.98;1.20;;;18.40;99.90;;;;;;5123559;27;20078;-75
2022/07/07 01:38:57;;;;;;;1.98;1.13;;;18.40;99.90;;;;;;5121626;27;20187;-75
2022/07/07 01:41:23;;;;;;;2.13;1.25;;;18.40;99.90;;;;;;5122952;27;21740;-75
2022/07/07 01:43:48;;;;;;;3.30;1.33;;;18.40;99.90;;;;;;5123846;27;20044;-76
2022/07/07 01:46:14;;;;;;;3.03;1.10;;;18.40;99.90;;;;;;5122775;27;20130;-76
2022/07/07 01:48:40;;;;;;;2.15;1.23;;;18.40;99.90;;;;;;5117985;27;20055;-75
2022/07/07 01:51:06;;;;;;;2.88;1.30;;;18.40;99.90;;;;;;5119836;27;20034;-75
2022/07/07 01:53:32;;;;;;;2.83;1.40;;;18.40;99.90;;;;;;5122949;27;20039;-75
2022/07/07 01:56:05;;;;;;;2.10;1.20;;;18.30;99.90;;;;;;5122425;27;20057;-76
2022/07/07 01:58:31;;;;;;;6.05;1.83;;;18.30;99.90;;;;;;5119059;27;20054;-75
2022/07/07 02:00:57;;;;;;;2.25;1.50;;;18.30;99.90;;;;;;5123495;27;20101;-75
2022/07/07 02:03:23;;;;;;;3.53;1.50;;;18.30;99.90;;;;;;5123115;27;20623;-75
2022/07/07 02:05:48;;;;;;;1.95;1.45;;;18.30;99.90;;;;;;5119809;27;21086;-75
2022/07/07 02:08:14;;;;;;;3.28;1.65;;;18.30;99.90;;;;;;5121690;27;20082;-76
2022/07/07 02:13:24;;;;;;;3.17;1.50;;;18.20;99.90;;;;;;5120326;27;20554;-75
2022/07/07 02:15:50;;;;;;;2.53;1.73;;;18.20;99.90;;;;;;5123278;27;20073;-75
2022/07/07 02:18:15;;;;;;;2.95;1.50;;;18.20;99.90;;;;;;5121745;27;20503;-75
2022/07/07 02:20:42;;;;;;;5.72;2.10;;;18.20;99.90;;;;;;5121021;27;20100;-75
2022/07/07 02:23:08;;;;;;;5.63;1.77;;;18.10;99.90;;;;;;5121666;27;20151;-75
2022/07/07 02:25:34;;;;;;;3.22;1.88;;;18.10;99.90;;;;;;5122659;27;20467;-75
2022/07/07 02:28:00;;;;;;;4.85;2.40;;;18.10;99.90;;;;;;5120114;27;20123;-75
2022/07/07 02:30:25;;;;;;;4.25;1.98;;;18.10;99.90;;;;;;5120330;27;20044;-75
2022/07/07 02:32:51;;;;;;;3.20;2.00;;;18.10;99.90;;;;;;5119599;27;20039;-75
2022/07/07 02:35:17;;;;;;;2.70;1.63;;;18.00;99.90;;;;;;5124216;27;20122;-75
2022/07/07 02:37:43;;;;;;;4.43;2.28;;;18.00;99.90;;;;;;5120574;27;20086;-75
2022/07/07 02:40:10;;;;;;;3.03;2.67;;;18.00;99.90;;;;;;5120728;27;20039;-75
2022/07/07 02:42:35;;;;;;;4.22;2.10;;;18.00;99.90;;;;;;5121818;27;20067;-75
2022/07/07 02:45:01;;;;;;;4.53;2.05;;;18.00;99.90;;;;;;5120575;27;20494;-75
2022/07/07 02:47:27;;;;;;;4.88;2.97;;;17.90;99.90;;;;;;5106736;27;20120;-75
2022/07/07 02:49:53;;;;;;;4.22;2.53;;;17.90;99.90;;;;;;5121857;27;20038;-75
2022/07/07 02:52:19;;;;;;;5.00;2.38;;;18.00;99.90;;;;;;5124373;27;20765;-75
2022/07/07 02:54:44;;;;;;;6.70;2.85;;;18.00;99.90;;;;;;5123629;27;20039;-75
2022/07/07 02:57:10;;;;;;;3.33;1.95;;;17.90;99.90;;;;;;5119056;27;20402;-75
2022/07/07 02:59:36;;;;;;;6.65;2.83;;;17.90;99.90;;;;;;5119865;27;20125;-75
2022/07/07 03:02:02;;;;;;;3.17;2.10;;;17.90;99.90;;;;;;5120551;27;20160;-75
2022/07/07 03:04:28;;;;;;;6.07;2.47;;;17.90;99.90;;;;;;5122954;27;20042;-75
2022/07/07 03:06:54;;;;;;;5.65;2.38;;;17.90;99.90;;;;;;5120378;27;21160;-75
2022/07/07 03:09:20;;;;;;;3.10;2.20;;;17.80;99.90;;;;;;5116474;27;20414;-75
2022/07/07 03:11:45;;;;;;;5.75;2.67;;;17.80;99.90;;;;;;5119047;27;20684;-75
2022/07/07 03:14:11;;;;;;;4.05;2.20;;;17.80;99.90;;;;;;5106927;27;20039;-75
2022/07/07 03:16:37;;;;;;;4.95;2.83;;;17.80;99.90;;;;;;5122088;27;20050;-75
2022/07/07 03:19:03;;;;;;;9.15;3.17;;;17.80;99.90;;;;;;5122382;27;20038;-75
2022/07/07 03:21:29;;;;;;;5.80;2.55;;;17.70;99.90;;;;;;5120788;27;20413;-74
2022/07/07 03:23:54;;;;;;;5.45;2.92;;;17.70;99.90;;;;;;5118617;27;20514;-75
2022/07/07 03:26:20;;;;;;;4.30;2.63;;;17.70;99.90;;;;;;5116809;27;20048;-75
2022/07/07 03:28:46;;;;;;;6.75;2.70;;;17.70;99.90;;;;;;5120136;27;20414;-75
2022/07/07 03:31:12;;;;;;;4.07;2.45;;;17.70;99.90;;;;;;5119388;27;20051;-75
2022/07/07 03:33:38;;;;;;;5.55;2.33;;;17.70;99.90;;;;;;5119999;27;20064;-76
2022/07/07 03:36:04;;;;;;;5.28;2.65;;;17.70;99.90;;;;;;5122798;27;20047;-75
2022/07/07 03:38:29;;;;;;;4.55;2.78;;;17.60;99.90;;;;;;5121751;27;20074;-75
2022/07/07 03:40:55;;;;;;;7.38;2.75;;;17.60;99.90;;;;;;5122080;27;20031;-74
2022/07/07 03:43:21;;;;;;;9.73;2.95;;;17.60;99.90;;;;;;5119745;27;20611;-75
2022/07/07 03:45:47;;;;;;;3.58;2.20;;;17.60;99.90;;;;;;5124367;27;20050;-75
2022/07/07 03:48:13;;;;;;;3.50;2.28;;;17.60;99.90;;;;;;5120895;27;20588;-75
2022/07/07 03:50:38;;;;;;;5.55;2.33;;;17.60;99.90;;;;;;5118324;27;20040;-75
2022/07/07 03:53:04;;;;;;;4.20;2.00;;;17.50;99.90;;;;;;5120759;27;20138;-76
2022/07/07 03:55:30;;;;;;;5.13;2.72;;;17.50;99.90;;;;;;5118887;27;20097;-76
2022/07/07 03:57:56;;;;;;;3.50;1.75;;;17.50;99.90;;;;;;5126431;27;20051;-76
2022/07/07 04:00:21;;;;;;;4.55;1.77;;;17.50;99.90;;;;;;5125656;27;20464;-75
2022/07/07 04:02:47;;;;;;;5.25;2.35;;;17.50;99.90;;;;;;5123058;27;20070;-75
2022/07/07 04:05:13;;;;;;;5.03;2.55;;;17.50;99.90;;;;;;5124188;27;20066;-81
2022/07/07 04:07:39;;;;;;;6.68;2.17;;;17.50;99.90;;;;;;5123652;27;20048;-81
2022/07/07 04:10:05;;;;;;;4.43;2.20;;;17.50;99.90;;;;;;5122181;27;20052;-77
2022/07/07 04:12:31;;;;;;;3.55;2.13;;;17.50;99.90;;;;;;5125763;27;20534;-76
2022/07/07 04:14:57;;;;;;;7.00;3.28;;;17.50;99.90;;;;;;5125149;27;20058;-76
2022/07/07 04:17:23;;;;;;;3.30;2.35;;;17.50;99.90;;;;;;5127144;27;20053;-76
2022/07/07 04:19:49;;;;;;;5.53;2.45;;;17.40;99.90;;;;;;5126671;27;20173;-77
2022/07/07 04:22:14;;;;;;;6.10;2.65;;;17.40;99.90;;;;;;5125727;27;20085;-76
2022/07/07 04:24:40;;;;;;;3.58;2.15;;;17.40;99.90;;;;;;5124471;27;20567;-75
2022/07/07 04:27:08;;;;;;;4.45;2.40;;;17.50;99.90;;;;;;5107624;27;20162;-74
2022/07/07 04:29:34;;;;;;;6.07;2.30;;;17.40;99.90;;;;;;5125669;27;20104;-78
2022/07/07 04:32:00;;;;;;;5.13;2.90;;;17.50;99.90;;;;;;5126135;27;20098;-75
2022/07/07 04:34:26;;;;;;;7.05;2.65;;;17.50;99.90;;;;;;5123472;27;20046;-75
2022/07/07 04:36:51;;;;;;;6.53;2.72;;;17.50;99.90;;;;;;5123772;27;20051;-75
2022/07/07 04:39:20;;;;;;;3.42;2.30;;;17.50;99.90;;;;;;5125498;27;20418;-74
2022/07/07 04:41:46;;;;;;;6.20;2.40;;;17.40;99.90;;;;;;5122417;27;20101;-75
2022/07/07 04:44:12;;;;;;;5.10;2.33;;;17.50;99.90;;;;;;5123903;27;20035;-75
2022/07/07 04:46:38;;;;;;;8.13;2.83;;;17.40;99.90;;;;;;5122561;27;20098;-75
2022/07/07 04:49:03;;;;;;;5.82;2.25;;;17.40;99.90;;;;;;5115428;27;20078;-76
2022/07/07 04:51:29;;;;;;;6.15;2.83;;;17.50;99.90;;;;;;5121571;27;20039;-76
2022/07/07 04:53:55;;;;;;;4.80;2.40;;;17.40;99.90;;;;;;5123662;27;20677;-75
2022/07/07 04:56:21;;;;;;;6.45;2.53;;;17.50;99.90;;;;;;5120777;27;20043;-75
2022/07/07 04:58:47;;;;;;;5.20;3.10;;;17.40;99.90;;;;;;5122689;27;20043;-76
2022/07/07 05:01:13;;;;;;;4.15;2.47;;;17.40;99.90;;;;;;5125027;27;20572;-74
2022/07/07 05:03:38;;;;;;;4.63;2.25;;;17.40;99.90;;;;;;5123064;27;20050;-74
2022/07/07 05:06:04;;;;;;;4.38;2.50;;;17.30;99.90;;;;;;5106829;27;20949;-75
2022/07/07 05:08:30;;;;;;;9.30;2.35;;;17.40;99.90;;;;;;5120963;27;20039;-74
2022/07/07 05:10:56;;;;;;;9.60;3.08;;;17.40;99.90;;;;;;5121255;27;20047;-74
2022/07/07 05:13:22;;;;;;;6.93;2.40;;;17.40;99.90;;;;;;5122261;27;20127;-75
2022/07/07 05:15:48;;;;;;;10.95;2.65;;;17.40;99.90;;;;;;5121067;27;20061;-74
2022/07/07 05:18:15;;;;;;;4.32;2.35;;;17.40;99.90;;;;;;5123660;27;20046;-75
2022/07/07 05:20:41;;;;;;;7.93;3.63;;;17.40;99.90;;;;;;5123241;27;20036;-75
2022/07/07 05:23:06;;;;;;;6.50;2.78;;;17.40;99.90;;;;;;5118327;27;20040;-74
2022/07/07 05:25:32;;;;;;;5.93;2.60;;;17.40;99.90;;;;;;5116215;27;20058;-74
2022/07/07 05:27:58;;;;;;;5.75;2.45;;;17.50;99.90;;;;;;5124909;27;20043;-75
2022/07/07 05:30:24;;;;;;;5.78;2.20;;;17.50;99.90;;;;;;5123308;27;20040;-75
2022/07/07 05:32:50;;;;;;;6.28;2.60;;;17.50;99.90;;;;;;5121354;27;20134;-75
2022/07/07 05:35:16;;;;;;;3.60;1.95;;;17.50;99.90;;;;;;5123377;27;20036;-75
2022/07/07 05:37:42;;;;;;;7.35;2.70;;;17.50;99.90;;;;;;5123181;27;20158;-75
2022/07/07 05:40:08;;;;;;;7.45;2.88;;;17.60;99.90;;;;;;5121475;27;20730;-75
2022/07/07 05:42:34;;;;;;;4.60;3.25;;;17.50;99.90;;;;;;5119296;27;20043;-75
2022/07/07 05:45:00;;;;;;;6.15;2.50;;;17.60;99.90;;;;;;5119225;27;20043;-75
2022/07/07 05:47:26;;;;;;;6.50;2.95;;;17.60;99.90;;;;;;5123593;27;20608;-75
2022/07/07 05:49:52;;;;;;;5.72;2.42;;;17.60;99.90;;;;;;5122782;27;20054;-75
2022/07/07 05:52:18;;;;;;;6.20;2.63;;;17.60;99.90;;;;;;5124009;27;20531;-75
2022/07/07 05:54:44;;;;;;;8.93;3.75;;;17.60;99.90;;;;;;5124556;27;20043;-75
2022/07/07 05:57:09;;;;;;;9.02;2.63;;;17.60;99.90;;;;;;5121431;27;20048;-76
2022/07/07 05:59:35;;;;;;;6.82;2.72;;;17.70;99.90;;;;;;5121528;27;20509;-75
2022/07/07 06:02:01;;;;;;;5.53;3.38;;;17.70;99.90;;;;;;5124113;27;20039;-75
2022/07/07 06:04:27;;;;;;;7.70;2.35;;;17.70;99.90;;;;;;5122816;27;20184;-76
2022/07/07 06:06:53;;;;;;;5.22;2.50;;;17.70;99.90;;;;;;5118005;27;20051;-76
2022/07/07 06:09:19;;;;;;;6.63;2.95;;;17.80;99.90;;;;;;5121035;27;20039;-76
2022/07/07 06:11:45;;;;;;;6.28;2.90;;;17.80;99.90;;;;;;5118876;27;20494;-76
2022/07/07 06:14:10;;;;;;;5.22;2.67;;;17.80;99.90;;;;;;5122530;27;20055;-76
2022/07/07 06:16:39;;;;;;;7.72;2.40;;;17.90;99.90;;;;;;5120453;27;20521;-77
2022/07/07 06:19:05;;;;;;;4.57;2.47;;;17.90;99.90;;;;;;5121025;27;20047;-80
2022/07/07 06:21:31;;;;;;;3.75;2.05;;;17.90;99.90;;;;;;5120861;27;20059;-75
2022/07/07 06:23:56;;;;;;;6.28;2.60;;;17.80;99.90;;;;;;5119948;27;20792;-76
2022/07/07 06:26:22;;;;;;;5.40;1.92;;;17.90;99.90;;;;;;5119150;27;20047;-77
2022/07/07 06:28:48;;;;;;;3.60;2.05;;;17.90;99.90;;;;;;5121290;27;20744;-76
2022/07/07 06:31:14;;;;;;;5.38;2.10;;;17.80;99.90;;;;;;5120621;27;20077;-75
2022/07/07 06:33:40;;;;;;;7.88;2.25;;;17.90;99.90;;;;;;5120954;27;20044;-77
2022/07/07 06:36:06;;;;;;;4.28;1.98;;;17.90;99.90;;;;;;5117774;27;20131;-76
2022/07/07 06:38:31;;;;;;;4.63;1.88;;;18.00;99.90;;;;;;5115676;27;20039;-77
2022/07/07 06:40:58;;;;;;;4.22;1.90;;;18.00;99.90;;;;;;5106533;27;20789;-77
2022/07/07 06:43:25;;;;;;;8.63;1.70;;;18.10;99.90;;;;;;5120780;27;20038;-76
2022/07/07 06:45:51;;;;;;;4.53;1.80;;;18.10;99.90;;;;;;5122210;27;20160;-77
2022/07/07 06:48:17;;;;;;;2.05;1.40;;;18.10;99.90;;;;;;5121450;27;20860;-77
2022/07/07 06:50:44;;;;;;;4.72;2.10;;;18.20;99.90;;;;;;5121884;27;20044;-77
2022/07/07 06:53:10;;;;;;;4.75;1.70;;;18.20;99.90;;;;;;5118239;27;20039;-77
2022/07/07 06:55:35;;;;;;;5.22;1.85;;;18.20;99.90;;;;;;5121183;27;20043;-77
2022/07/07 06:58:05;;;;;;;6.15;1.98;;;18.20;99.90;;;;;;5122993;27;20062;-77
2022/07/07 07:00:30;;;;;;;4.65;2.03;;;18.30;99.90;;;;;;5117458;27;20528;-77
2022/07/07 07:02:56;;;;;;;8.13;2.25;;;18.40;99.90;;;;;;5119485;27;20035;-77
2022/07/07 07:05:22;;;;;;;3.83;1.50;;;18.40;99.90;;;;;;5118370;27;20227;-77
2022/07/07 07:07:48;;;;;;;6.32;2.45;;;18.60;99.90;;;;;;5116886;27;20134;-76
2022/07/07 07:10:14;;;;;;;4.15;1.80;;;18.70;99.90;;;;;;5122419;27;20035;-77
2022/07/07 07:12:40;;;;;;;3.45;1.70;;;18.80;99.90;;;;;;5120118;27;20046;-77
2022/07/07 07:15:07;;;;;;;8.85;2.78;;;18.80;99.90;;;;;;5120145;27;20124;-76
2022/07/07 07:17:33;;;;;;;3.85;1.02;;;18.80;99.90;;;;;;5120225;27;20162;-77
2022/07/07 07:19:59;;;;;;;4.00;1.80;;;18.80;99.90;;;;;;5122687;27;20500;-76
2022/07/07 07:22:26;;;;;;;4.70;2.08;;;18.80;99.90;;;;;;5120886;27;20045;-76
2022/07/07 07:24:52;;;;;;;2.42;1.30;;;18.70;99.90;;;;;;5121256;27;20066;-76
2022/07/07 07:27:18;;;;;;;4.75;1.85;;;18.70;99.90;;;;;;5121791;27;20078;-77
2022/07/07 07:29:44;;;;;;;3.90;1.65;;;18.70;99.90;;;;;;5120968;27;20066;-76
2022/07/07 07:32:09;;;;;;;3.10;1.45;;;18.60;99.90;;;;;;5121386;27;20623;-76
2022/07/07 07:34:35;;;;;;;3.00;1.08;;;18.60;99.90;;;;;;5123980;27;20051;-76
2022/07/07 07:37:01;;;;;;;7.20;2.40;;;18.60;99.90;;;;;;5123563;27;20057;-77
2022/07/07 07:39:27;;;;;;;6.57;1.80;;;18.70;99.90;;;;;;5120411;27;20444;-77
2022/07/07 07:41:53;;;;;;;5.07;1.50;;;18.70;99.90;;;;;;5121728;27;20578;-76
2022/07/07 07:47:19;;;;;;;5.22;1.80;;;18.70;99.90;;;;;;5078056;28;20071;-77
2022/07/07 07:49:45;;;;;;;6.07;1.67;;;18.80;99.90;;;;;;5112421;27;20052;-77
2022/07/07 07:52:11;;;;;;;5.05;1.60;;;18.80;99.90;;;;;;5121342;27;20064;-77
2022/07/07 07:54:37;;;;;;;4.45;1.27;;;18.80;99.90;;;;;;5123532;27;20044;-77
2022/07/07 07:57:03;;;;;;;7.43;1.48;;;18.90;99.90;;;;;;5104104;27;20052;-77
2022/07/07 07:59:29;;;;;;;7.03;1.85;;;19.00;99.90;;;;;;5122107;27;20043;-77
2022/07/07 08:01:55;;;;;;;3.00;1.13;;;19.00;99.90;;;;;;5118337;27;20040;-77
2022/07/07 08:04:21;;;;;;;8.93;1.67;;;19.10;99.90;;;;;;5120848;27;20040;-77
2022/07/07 08:06:46;;;;;;;1.83;1.10;;;19.20;99.90;;;;;;5122095;27;20070;-77
2022/07/07 08:09:12;;;;;;;5.35;1.70;;;19.20;99.90;;;;;;5122240;27;20046;-76
2022/07/07 08:11:38;;;;;;;2.08;0.80;;;19.30;99.90;;;;;;5119015;27;20413;-77
2022/07/07 08:14:04;;;;;;;5.90;1.60;;;19.30;99.90;;;;;;5119165;27;20044;-77
2022/07/07 08:16:30;;;;;;;8.60;1.52;;;19.30;99.90;;;;;;5121372;27;20044;-77
2022/07/07 08:18:56;;;;;;;4.03;1.25;;;19.50;99.90;;;;;;5119488;27;20043;-76
2022/07/07 08:21:21;;;;;;;4.20;1.23;;;19.60;99.90;;;;;;5119290;27;20154;-76
2022/07/07 08:23:47;;;;;;;4.70;1.23;;;19.70;99.90;;;;;;5120169;27;20046;-77
2022/07/07 08:26:13;;;;;;;3.15;1.20;;;19.90;99.90;;;;;;5102887;27;20063;-77
2022/07/07 08:28:40;;;;;;;2.83;1.52;;;20.10;99.90;;;;;;5117370;27;20788;-77
2022/07/07 08:31:09;;;;;;;1.80;0.80;;;20.10;99.90;;;;;;5117702;27;20039;-77
2022/07/07 08:33:35;;;;;;;4.80;1.73;;;20.20;99.90;;;;;;5118657;27;21205;-77
2022/07/07 08:36:01;;;;;;;2.28;0.95;;;20.30;99.90;;;;;;5115910;27;20063;-86
2022/07/07 08:38:27;;;;;;;4.30;0.80;;;20.40;99.90;;;;;;5119166;27;20044;-77
2022/07/07 08:40:53;;;;;;;2.20;0.70;;;20.50;99.90;;;;;;5118434;27;20513;-77
2022/07/07 08:43:19;;;;;;;2.45;0.90;;;20.50;99.90;;;;;;5118437;27;20101;-77
2022/07/07 08:45:48;;;;;;;2.13;0.80;;;20.60;99.90;;;;;;5118732;27;20594;-77
2022/07/07 08:48:14;;;;;;;3.45;1.55;;;20.70;99.90;;;;;;5118171;27;20069;-77
2022/07/07 08:50:40;;;;;;;4.13;1.15;;;20.70;99.90;;;;;;5123743;27;20032;-78
2022/07/07 08:53:08;;;;;;;6.20;1.10;;;20.80;99.90;;;;;;5119820;27;20460;-77
2022/07/07 08:55:36;;;;;;;2.28;0.85;;;20.80;99.90;;;;;;5121251;27;20082;-77
2022/07/07 08:58:03;;;;;;;1.63;1.05;;;20.90;99.90;;;;;;5118366;27;20529;-77
2022/07/07 09:00:29;;;;;;;3.72;1.90;;;20.90;99.90;;;;;;5122014;27;20493;-77
2022/07/07 09:02:58;;;;;;;6.20;0.98;;;21.00;99.90;;;;;;5120329;27;20046;-77
2022/07/07 09:05:27;;;;;;;2.45;1.45;;;21.10;99.90;;;;;;5119362;27;20110;-77
2022/07/07 09:07:53;;;;;;;6.10;0.68;;;21.00;99.90;;;;;;5124026;27;20632;-77
2022/07/07 09:10:31;;;;;;;4.55;0.88;;;21.00;99.90;;;;;;5123204;27;20181;-77
2022/07/07 09:12:58;;;;;;;2.10;0.75;;;21.00;99.90;;;;;;5120665;27;20043;-78
2022/07/07 09:15:24;;;;;;;1.58;1.33;;;21.10;99.90;;;;;;5104031;27;20736;-77
2022/07/07 09:17:50;;;;;;;1.25;0.75;;;21.20;99.90;;;;;;5119993;27;20039;-78
2022/07/07 09:20:16;;;;;;;3.40;1.58;;;21.30;99.90;;;;;;5121952;27;20039;-78
2022/07/07 09:22:42;;;;;;;1.75;0.77;;;21.40;99.90;;;;;;5123511;27;20379;-77
2022/07/07 09:25:09;;;;;;;7.32;1.15;;;21.40;99.90;;;;;;5124019;27;20655;-77
2022/07/07 09:27:56;;;;;;;1.38;0.93;;;21.50;99.90;;;;;;5119421;27;20163;-78
2022/07/07 09:30:41;;;;;;;2.00;1.23;;;21.50;99.90;;;;;;5124754;27;20567;-78
2022/07/07 09:33:19;;;;;;;2.83;1.10;;;21.50;99.90;;;;;;5115356;27;20742;-78
2022/07/07 09:38:32;;;;;;;3.10;0.50;;;21.60;99.90;;;;;;5124977;27;20035;-78
2022/07/07 09:41:03;;;;;;;2.22;1.00;;;21.80;99.90;;;;;;5119439;27;20051;-78
2022/07/07 09:43:45;;;;;;;3.42;1.73;;;21.90;99.90;;;;;;5121375;27;20083;-78
2022/07/07 09:46:13;;;;;;;1.85;0.70;;;21.90;99.90;;;;;;5122791;27;20520;-78
2022/07/07 09:48:42;;;;;;;6.95;1.52;;;21.90;99.90;;;;;;5123199;27;20094;-77
2022/07/07 09:51:21;;;;;;;1.33;0.60;;;22.00;99.90;;;;;;5123348;27;20031;-77
2022/07/07 09:54:10;;;;;;;1.63;0.60;;;22.00;99.90;;;;;;5122475;27;20088;-78
2022/07/07 09:56:41;;;;;;;1.27;0.63;;;22.10;99.90;;;;;;5122035;27;20510;-78
2022/07/07 09:59:09;;;;;;;5.40;1.00;;;22.10;99.90;;;;;;5121368;27;20101;-77
2022/07/07 10:01:40;;;;;;;0.88;0.85;;;22.20;99.90;;;;;;5121190;27;20069;-78
2022/07/07 10:04:11;;;;;;;3.10;0.98;;;22.20;99.90;;;;;;5118830;27;20114;-77
2022/07/07 10:06:39;;;;;;;1.45;0.77;;;22.20;99.90;;;;;;5118284;27;20058;-77
2022/07/07 10:09:08;;;;;;;1.35;0.73;;;22.10;99.90;;;;;;5118907;27;20082;-77
2022/07/07 10:11:44;;;;;;;2.75;0.70;;;22.00;99.90;;;;;;5123709;27;20136;-78
2022/07/07 10:14:14;;;;;;;1.38;0.90;;;22.00;99.90;;;;;;5122065;27;20126;-81
2022/07/07 10:16:42;;;;;;;3.30;0.88;;;21.90;99.90;;;;;;5121647;27;20070;-77
2022/07/07 10:19:11;;;;;;;1.25;0.65;;;21.90;99.90;;;;;;5121909;27;20051;-77
2022/07/07 10:21:39;;;;;;;1.52;0.65;;;22.10;99.90;;;;;;5123342;27;21287;-78
2022/07/07 10:24:06;;;;;;;2.20;1.38;;;22.20;99.90;;;;;;5123597;27;20438;-76
2022/07/07 10:26:46;;;;;;;2.80;0.90;;;22.30;99.90;;;;;;5104520;27;20581;-77
2022/07/07 10:29:12;;;;;;;1.30;0.73;;;22.10;99.90;;;;;;5131327;27;20496;-77
2022/07/07 10:31:39;;;;;;;3.35;0.70;;;22.00;99.90;;;;;;5120879;27;20506;-77
2022/07/07 10:34:12;;;;;;;2.22;1.05;;;22.20;99.90;;;;;;5123113;27;20174;-77
2022/07/07 10:37:02;;;;;;;2.13;0.82;;;22.30;99.90;;;;;;5123340;27;20046;-77
2022/07/07 10:39:35;;;;;;;2.83;0.90;;;22.30;99.90;;;;;;5109713;27;20047;-77
2022/07/07 10:42:07;;;;;;;0.93;0.63;;;22.10;99.90;;;;;;5124599;27;20045;-77
2022/07/07 10:44:35;;;;;;;1.13;0.85;;;21.90;99.90;;;;;;5123919;27;20066;-77
2022/07/07 10:47:13;;;;;;;4.28;0.98;;;22.00;99.90;;;;;;5125357;27;20048;-77
2022/07/07 10:49:44;;;;;;;3.00;0.98;;;22.10;99.90;;;;;;5124358;27;20046;-77
2022/07/07 10:52:14;;;;;;;1.17;0.70;;;22.10;99.90;;;;;;5123358;27;20040;-77
2022/07/07 10:54:44;;;;;;;1.13;0.70;;;22.10;99.90;;;;;;5123456;27;20047;-77
2022/07/07 10:57:12;;;;;;;1.17;0.77;;;22.20;99.90;;;;;;5123897;27;20144;-77
2022/07/07 10:59:58;;;;;;;1.67;0.85;;;22.30;99.90;;;;;;5124865;27;20097;-77
2022/07/07 11:02:47;;;;;;;1.63;0.60;;;22.40;99.90;;;;;;5122805;27;20099;-77
2022/07/07 11:05:12;;;;;;;2.97;0.82;;;22.50;99.90;;;;;;5122932;27;20130;-77
2022/07/07 11:07:40;;;;;;;2.65;1.00;;;22.50;99.90;;;;;;5123609;27;20058;-77
2022/07/07 11:10:13;;;;;;;1.30;0.50;;;22.40;99.90;;;;;;5124119;27;20050;-77
2022/07/07 11:12:44;;;;;;;1.98;1.25;;;22.30;99.90;;;;;;5123451;27;20574;-77
2022/07/07 11:15:22;;;;;;;3.20;1.03;;;22.20;99.90;;;;;;5107557;27;20043;-77
2022/07/07 11:17:49;;;;;;;2.95;1.17;;;22.30;99.90;;;;;;5123462;27;20204;-77
2022/07/07 11:20:20;;;;;;;2.38;0.73;;;22.30;99.90;;;;;;5125237;27;20046;-77
2022/07/07 11:22:49;;;;;;;1.25;0.90;;;22.20;99.90;;;;;;5122564;27;20198;-77
2022/07/07 11:25:18;;;;;;;1.58;1.05;;;22.30;99.90;;;;;;5124075;27;20126;-77
2022/07/07 11:27:44;;;;;;;4.00;0.82;;;22.50;99.90;;;;;;5125620;27;20128;-77
2022/07/07 11:30:10;;;;;;;7.95;1.75;;;22.70;99.90;;;;;;5125930;27;20115;-77
2022/07/07 11:32:38;;;;;;;2.65;1.17;;;22.80;99.90;;;;;;5122626;27;20046;-77
2022/07/07 11:35:10;;;;;;;2.50;1.00;;;22.80;99.90;;;;;;5126185;27;20126;-77
2022/07/07 11:37:41;;;;;;;3.78;1.27;;;22.70;99.90;;;;;;5125436;27;20044;-76
2022/07/07 11:40:13;;;;;;;3.72;1.23;;;22.60;99.90;;;;;;5123648;27;20079;-77
2022/07/07 11:42:41;;;;;;;3.50;0.90;;;22.50;99.90;;;;;;5124008;27;20500;-77
2022/07/07 11:45:20;;;;;;;1.75;1.00;;;22.50;99.90;;;;;;5122012;27;20104;-77
2022/07/07 11:47:48;;;;;;;3.08;1.48;;;22.60;99.90;;;;;;5121611;27;20039;-77
2022/07/07 11:50:14;;;;;;;3.78;0.77;;;22.90;99.90;;;;;;5121432;27;20547;-77
2022/07/07 11:53:06;;;;;;;2.88;1.25;;;23.00;99.90;;;;;;5122166;27;20035;-78
2022/07/07 11:55:32;;;;;;;4.47;1.40;;;23.10;99.90;;;;;;5121489;27;20104;-78
2022/07/07 11:58:00;;;;;;;1.58;1.00;;;23.10;99.70;;;;;;5123134;27;20117;-78
2022/07/07 12:00:31;;;;;;;2.45;1.10;;;23.20;99.70;;;;;;5123215;27;20042;-78
2022/07/07 12:03:02;;;;;;;1.85;0.90;;;23.20;99.30;;;;;;5124799;27;20040;-77
2022/07/07 12:05:30;;;;;;;1.77;0.77;;;23.30;99.00;;;;;;5121798;27;20544;-77
2022/07/07 12:08:01;;;;;;;2.50;0.98;;;23.40;98.40;;;;;;5124225;27;20044;-77
2022/07/07 12:10:29;;;;;;;1.92;1.08;;;23.30;98.10;;;;;;5114888;27;20109;-77
2022/07/07 12:13:02;;;;;;;1.95;0.98;;;23.20;97.70;;;;;;5120161;27;20031;-79
2022/07/07 12:15:34;;;;;;;4.43;1.10;;;23.30;97.50;;;;;;5117354;27;20090;-77
2022/07/07 12:18:02;;;;;;;7.07;1.67;;;23.40;97.60;;;;;;5122758;27;20043;-78
2022/07/07 12:20:28;;;;;;;1.80;0.98;;;23.50;97.30;;;;;;5122350;27;20039;-77
2022/07/07 12:22:57;;;;;;;1.90;0.80;;;23.60;97.00;;;;;;5122003;27;20048;-78
2022/07/07 12:25:25;;;;;;;1.20;0.80;;;23.60;96.70;;;;;;5122633;27;20587;-78
2022/07/07 12:28:08;;;;;;;2.55;0.90;;;23.60;96.60;;;;;;5123053;27;20433;-78
2022/07/07 12:30:52;;;;;;;3.03;1.83;;;23.70;96.40;;;;;;5118891;27;20058;-76
2022/07/07 12:33:45;;;;;;;3.35;1.23;;;23.70;96.30;;;;;;5120798;27;20528;-76
2022/07/07 12:36:16;;;;;;;2.30;1.00;;;23.80;96.00;;;;;;5118986;27;20052;-78
2022/07/07 12:38:54;;;;;;;3.72;1.13;;;23.90;96.00;;;;;;5124399;27;20048;-78
2022/07/07 12:41:32;;;;;;;3.42;1.23;;;23.80;95.70;;;;;;5104586;27;20083;-78
2022/07/07 12:44:19;;;;;;;6.18;1.70;;;23.70;95.80;;;;;;5124236;27;20060;-78
2022/07/07 12:46:46;;;;;;;4.90;1.55;;;23.90;95.90;;;;;;5122861;27;20089;-78
2022/07/07 12:49:12;;;;;;;3.95;1.20;;;23.90;95.70;;;;;;5122365;27;20055;-78
2022/07/07 12:51:41;;;;;;;3.03;1.20;;;24.00;95.50;;;;;;5116400;27;20043;-78
2022/07/07 12:54:19;;;;;;;3.00;1.45;;;24.00;95.20;;;;;;5123723;27;20028;-78
2022/07/07 12:56:45;;;;;;;2.63;0.98;;;24.00;95.20;;;;;;5122015;27;20113;-78
2022/07/07 12:59:18;;;;;;;1.88;0.90;;;24.00;94.80;;;;;;5120343;27;20043;-77